Time;durP1;ratioP1;P1;durP2;ratioP2;P2;SDS_P1;SDS_P2;PMS_P1;PMS_P2;Temp;Humidity;BMP_temperature;BMP_pressure;BME280_temperature;BME280_humidity;BME280_pressure;Samples;Min_cycle;Max_cycle;Signal;HPM_P1;HPM_P2
2022/07/15 00:00:27;;;;;;;7.65;3.70;;;;;;;;;;5030080;28;20017;-75
2022/07/15 00:02:53;;;;;;;6.43;3.60;;;;;;;;;;5027767;28;20436;-75
2022/07/15 00:05:19;;;;;;;6.75;4.22;;;;;;;;;;5028264;28;20264;-76
2022/07/15 00:07:45;;;;;;;7.32;3.60;;;;;;;;;;5030862;28;20040;-75
2022/07/15 00:10:14;;;;;;;7.22;3.78;;;;;;;;;;5030774;28;20126;-75
2022/07/15 00:12:45;;;;;;;4.88;3.47;;;;;;;;;;5029441;28;20167;-74
2022/07/15 00:15:11;;;;;;;4.68;3.80;;;;;;;;;;5028761;28;20033;-75
2022/07/15 00:17:38;;;;;;;9.90;3.95;;;;;;;;;;5025755;28;20124;-75
2022/07/15 00:20:04;;;;;;;6.85;3.70;;;;;;;;;;5025003;28;20032;-74
2022/07/15 00:22:31;;;;;;;9.23;4.10;;;;;;;;;;5027006;28;20465;-75
2022/07/15 00:24:57;;;;;;;5.68;3.45;;;;;;;;;;5024996;28;20379;-75
2022/07/15 00:27:23;;;;;;;6.60;3.45;;;;;;;;;;5026124;28;20044;-76
2022/07/15 00:29:50;;;;;;;4.97;3.70;;;;;;;;;;5028445;28;20092;-75
2022/07/15 00:32:16;;;;;;;6.13;4.07;;;;;;;;;;5024369;28;20029;-75
2022/07/15 00:34:43;;;;;;;8.65;3.70;;;;;;;;;;5025900;28;20037;-74
2022/07/15 00:37:09;;;;;;;7.65;4.05;;;;;;;;;;5023864;28;20542;-75
2022/07/15 00:39:35;;;;;;;5.97;3.72;;;;;;;;;;5025312;28;20036;-74
2022/07/15 00:42:01;;;;;;;5.05;3.55;;;;;;;;;;5022338;28;20045;-75
2022/07/15 00:44:27;;;;;;;10.52;4.90;;;;;;;;;;5026493;28;20033;-74
2022/07/15 00:46:53;;;;;;;5.35;3.55;;;;;;;;;;5029845;28;20102;-75
2022/07/15 00:49:20;;;;;;;9.30;4.80;;;;;;;;;;5029270;28;20757;-74
2022/07/15 00:51:52;;;;;;;3.97;3.58;;;;;;;;;;5029531;28;20033;-76
2022/07/15 00:54:26;;;;;;;7.25;4.05;;;;;;;;;;5023598;28;20026;-76
2022/07/15 00:56:54;;;;;;;4.10;3.58;;;;;;;;;;5027757;28;20029;-75
2022/07/15 00:59:24;;;;;;;5.53;3.60;;;;;;;;;;5028043;28;20040;-75
2022/07/15 01:01:51;;;;;;;3.78;3.35;;;;;;;;;;5027955;28;20040;-74
2022/07/15 01:04:18;;;;;;;7.03;4.03;;;;;;;;;;5025741;28;20095;-74
2022/07/15 01:06:44;;;;;;;4.70;3.53;;;;;;;;;;5028980;28;20030;-75
2022/07/15 01:09:10;;;;;;;6.93;4.00;;;;;;;;;;5027351;28;20018;-75
2022/07/15 01:11:37;;;;;;;8.18;3.95;;;;;;;;;;5022224;28;20018;-76
2022/07/15 01:14:03;;;;;;;6.05;3.88;;;;;;;;;;5027358;28;20103;-76
2022/07/15 01:16:29;;;;;;;5.60;4.10;;;;;;;;;;5020851;28;20040;-76
2022/07/15 01:18:55;;;;;;;6.80;3.20;;;;;;;;;;5024122;28;20424;-76
2022/07/15 01:21:22;;;;;;;4.85;3.88;;;;;;;;;;5023291;28;20088;-76
2022/07/15 01:23:48;;;;;;;4.70;3.13;;;;;;;;;;5026670;28;20029;-75
2022/07/15 01:26:14;;;;;;;5.82;3.58;;;;;;;;;;5027347;28;20044;-75
2022/07/15 01:28:42;;;;;;;5.82;3.45;;;;;;;;;;5024230;28;20042;-74
2022/07/15 01:31:08;;;;;;;6.82;4.85;;;;;;;;;;5027344;28;20446;-75
2022/07/15 01:33:35;;;;;;;3.60;3.30;;;;;;;;;;5024049;28;20021;-75
2022/07/15 01:36:01;;;;;;;5.30;3.72;;;;;;;;;;5019037;28;20030;-75
2022/07/15 01:38:28;;;;;;;8.75;3.88;;;;;;;;;;5025809;28;20057;-75
2022/07/15 01:40:54;;;;;;;5.10;3.75;;;;;;;;;;5023851;28;20120;-75
2022/07/15 01:43:21;;;;;;;4.15;3.58;;;;;;;;;;5027996;28;20021;-75
2022/07/15 01:45:47;;;;;;;6.57;4.18;;;;;;;;;;5028451;28;20437;-74
2022/07/15 01:50:59;;;;;;;6.30;3.70;;;;;;;;;;5025377;28;20533;-76
2022/07/15 01:53:26;;;;;;;4.00;3.28;;;;;;;;;;5023799;28;20034;-76
2022/07/15 01:55:52;;;;;;;3.67;3.10;;;;;;;;;;5020206;28;20108;-76
2022/07/15 01:58:19;;;;;;;8.45;3.97;;;;;;;;;;5021044;28;20026;-76
2022/07/15 02:00:45;;;;;;;7.03;3.65;;;;;;;;;;5026889;28;20547;-76
2022/07/15 02:03:11;;;;;;;4.53;3.55;;;;;;;;;;5027689;28;20375;-75
2022/07/15 02:05:37;;;;;;;6.78;4.10;;;;;;;;;;5024299;28;20036;-75
2022/07/15 02:08:04;;;;;;;5.18;4.05;;;;;;;;;;5022460;28;20030;-76
2022/07/15 02:10:39;;;;;;;5.50;3.70;;;;;;;;;;5027362;28;20026;-76
2022/07/15 02:13:05;;;;;;;;;;;;;;;;;;5026556;28;20025;-74
2022/07/15 02:15:31;;;;;;;5.40;3.33;;;;;;;;;;5025786;28;19913;-76
2022/07/15 02:17:57;;;;;;;5.38;4.05;;;;;;;;;;5027781;28;20478;-75
2022/07/15 02:20:23;;;;;;;5.70;3.83;;;;;;;;;;5023086;28;20095;-75
2022/07/15 02:22:49;;;;;;;4.57;3.80;;;;;;;;;;5015479;28;20109;-74
2022/07/15 02:25:15;;;;;;;6.88;3.67;;;;;;;;;;5024693;28;20033;-73
2022/07/15 02:27:41;;;;;;;5.78;3.85;;;;;;;;;;5025249;28;20045;-74
2022/07/15 02:30:07;;;;;;;7.75;3.70;;;;;;;;;;5017843;28;20124;-76
2022/07/15 02:32:33;;;;;;;8.18;3.78;;;;;;;;;;5021708;28;20029;-75
2022/07/15 02:35:00;;;;;;;5.75;3.47;;;;;;;;;;5026508;28;20036;-75
2022/07/15 02:37:26;;;;;;;5.00;3.25;;;;;;;;;;5025847;28;20036;-75
2022/07/15 02:39:52;;;;;;;5.25;3.97;;;;;;;;;;5022040;28;20033;-76
2022/07/15 02:42:18;;;;;;;5.60;3.63;;;;;;;;;;5027902;28;20052;-74
2022/07/15 02:44:44;;;;;;;4.05;3.40;;;;;;;;;;5026141;28;20502;-75
2022/07/15 02:47:10;;;;;;;5.07;3.38;;;;;;;;;;5021089;28;20034;-74
2022/07/15 02:49:36;;;;;;;5.43;3.88;;;;;;;;;;5028112;28;20089;-75
2022/07/15 02:52:02;;;;;;;4.60;3.58;;;;;;;;;;5017331;28;20530;-74
2022/07/15 02:54:28;;;;;;;6.85;3.88;;;;;;;;;;5023755;28;20475;-75
2022/07/15 02:56:54;;;;;;;4.55;3.20;;;;;;;;;;5024257;28;20024;-75
2022/07/15 02:59:20;;;;;;;8.90;3.95;;;;;;;;;;5025212;28;20032;-75
2022/07/15 03:01:47;;;;;;;6.63;3.53;;;;;;;;;;5017741;28;20391;-75
2022/07/15 03:04:13;;;;;;;6.15;3.72;;;;;;;;;;5020496;28;20152;-76
2022/07/15 03:06:39;;;;;;;6.70;3.35;;;;;;;;;;5025138;28;20025;-76
2022/07/15 03:09:06;;;;;;;4.60;3.25;;;;;;;;;;5025691;28;20518;-75
2022/07/15 03:11:32;;;;;;;5.78;3.75;;;;;;;;;;5026606;28;20387;-77
2022/07/15 03:13:58;;;;;;;5.60;3.47;;;;;;;;;;5024176;28;20088;-75
2022/07/15 03:16:24;;;;;;;7.50;3.20;;;;;;;;;;5026232;28;20017;-77
2022/07/15 03:18:50;;;;;;;7.90;3.60;;;;;;;;;;5027833;28;20100;-75
2022/07/15 03:21:17;;;;;;;6.28;3.60;;;;;;;;;;5026991;28;20037;-76
2022/07/15 03:23:43;;;;;;;5.03;3.28;;;;;;;;;;5027100;28;20053;-76
2022/07/15 03:26:09;;;;;;;8.45;3.60;;;;;;;;;;5021891;28;20033;-76
2022/07/15 03:28:35;;;;;;;4.22;3.30;;;;;;;;;;5028230;28;20045;-75
2022/07/15 03:31:01;;;;;;;6.03;3.67;;;;;;;;;;5026073;28;20025;-75
2022/07/15 03:33:27;;;;;;;7.57;3.63;;;;;;;;;;5022606;28;20065;-75
2022/07/15 03:35:53;;;;;;;6.15;4.18;;;;;;;;;;5029079;28;20498;-77
2022/07/15 03:38:19;;;;;;;4.93;3.50;;;;;;;;;;5031590;28;20483;-75
2022/07/15 03:40:46;;;;;;;4.93;3.38;;;;;;;;;;5032215;28;20034;-76
2022/07/15 03:43:13;;;;;;;4.78;3.47;;;;;;;;;;5030354;28;20025;-76
2022/07/15 03:45:40;;;;;;;7.10;3.63;;;;;;;;;;5031604;28;20049;-74
2022/07/15 03:48:07;;;;;;;6.97;4.10;;;;;;;;;;5028956;28;20030;-76
2022/07/15 03:50:33;;;;;;;5.93;3.25;;;;;;;;;;5031128;28;20026;-74
2022/07/15 03:52:59;;;;;;;6.20;3.45;;;;;;;;;;5025942;28;20061;-74
2022/07/15 03:55:25;;;;;;;5.68;3.08;;;;;;;;;;5031370;28;20568;-75
2022/07/15 03:57:51;;;;;;;6.72;3.75;;;;;;;;;;5028450;28;20068;-75
2022/07/15 04:00:17;;;;;;;5.78;3.30;;;;;;;;;;5029553;28;20128;-75
2022/07/15 04:02:43;;;;;;;4.07;3.13;;;;;;;;;;5028568;28;20029;-74
2022/07/15 04:05:09;;;;;;;5.00;3.63;;;;;;;;;;5030379;28;20029;-75
2022/07/15 04:07:36;;;;;;;7.43;3.78;;;;;;;;;;5027875;28;20664;-74
2022/07/15 04:10:02;;;;;;;5.78;3.70;;;;;;;;;;5029516;28;20018;-75
2022/07/15 04:12:28;;;;;;;5.60;3.65;;;;;;;;;;5026012;28;20022;-75
2022/07/15 04:14:54;;;;;;;4.65;3.20;;;;;;;;;;5025760;28;20067;-74
2022/07/15 04:17:21;;;;;;;4.88;3.50;;;;;;;;;;5027715;28;20597;-75
2022/07/15 04:19:47;;;;;;;5.75;3.35;;;;;;;;;;5024636;28;20380;-75
2022/07/15 04:22:13;;;;;;;6.00;3.58;;;;;;;;;;5024642;28;20108;-75
2022/07/15 04:24:39;;;;;;;7.35;3.72;;;;;;;;;;5024494;28;20391;-75
2022/07/15 04:27:06;;;;;;;8.95;3.88;;;;;;;;;;5028194;28;20390;-76
2022/07/15 04:29:32;;;;;;;6.10;3.67;;;;;;;;;;5026213;28;20072;-74
2022/07/15 04:31:58;;;;;;;5.95;3.75;;;;;;;;;;5028362;28;20039;-74
2022/07/15 04:34:24;;;;;;;5.57;3.80;;;;;;;;;;5026329;28;20024;-74
2022/07/15 04:36:50;;;;;;;6.38;4.00;;;;;;;;;;5030734;28;20032;-75
2022/07/15 04:39:16;;;;;;;7.28;4.72;;;;;;;;;;5028402;28;20044;-75
2022/07/15 04:41:42;;;;;;;6.00;4.15;;;;;;;;;;5029923;28;20216;-75
2022/07/15 04:44:08;;;;;;;6.47;4.47;;;;;;;;;;5025602;28;20024;-75
2022/07/15 04:46:34;;;;;;;6.95;4.65;;;;;;;;;;5026247;28;20113;-75
2022/07/15 04:51:45;;;;;;;7.15;4.35;;;;;;;;;;5028289;28;20032;-75
2022/07/15 04:54:11;;;;;;;6.22;4.72;;;;;;;;;;5025962;28;20022;-75
2022/07/15 04:56:37;;;;;;;6.68;4.35;;;;;;;;;;5028170;28;20068;-75
2022/07/15 04:59:03;;;;;;;6.82;4.18;;;;;;;;;;5029072;28;20108;-75
2022/07/15 05:01:29;;;;;;;5.53;4.15;;;;;;;;;;5028208;28;20025;-74
2022/07/15 05:03:56;;;;;;;7.05;4.32;;;;;;;;;;5028104;28;20076;-74
2022/07/15 05:06:22;;;;;;;5.90;4.25;;;;;;;;;;5029042;28;20034;-76
2022/07/15 05:08:48;;;;;;;6.47;4.88;;;;;;;;;;5025101;28;20057;-75
2022/07/15 05:11:14;;;;;;;6.15;4.00;;;;;;;;;;5029029;28;20029;-75
2022/07/15 05:13:40;;;;;;;7.13;3.97;;;;;;;;;;5025219;28;20369;-75
2022/07/15 05:16:06;;;;;;;7.07;4.38;;;;;;;;;;5027060;28;20080;-75
2022/07/15 05:18:32;;;;;;;5.63;3.78;;;;;;;;;;5027752;28;20471;-75
2022/07/15 05:20:58;;;;;;;10.48;5.18;;;;;;;;;;5026740;28;20454;-75
2022/07/15 05:23:24;;;;;;;7.15;4.35;;;;;;;;;;5027423;28;20044;-73
2022/07/15 05:25:50;;;;;;;6.68;3.83;;;;;;;;;;5028325;28;20083;-74
2022/07/15 05:28:17;;;;;;;5.40;4.00;;;;;;;;;;5027636;28;20045;-75
2022/07/15 05:30:43;;;;;;;4.22;3.78;;;;;;;;;;5026777;28;20033;-75
2022/07/15 05:33:09;;;;;;;7.55;4.32;;;;;;;;;;5025871;28;20439;-75
2022/07/15 05:35:35;;;;;;;4.45;3.95;;;;;;;;;;5027467;28;20028;-75
2022/07/15 05:38:01;;;;;;;4.95;4.25;;;;;;;;;;5027558;28;20029;-74
2022/07/15 05:40:27;;;;;;;7.72;3.83;;;;;;;;;;5028346;28;20072;-75
2022/07/15 05:42:53;;;;;;;7.15;4.22;;;;;;;;;;5020251;28;20021;-76
2022/07/15 05:45:19;;;;;;;4.65;3.83;;;;;;;;;;5028905;28;20407;-74
2022/07/15 05:47:49;;;;;;;6.47;4.15;;;;;;;;;;5028250;28;20483;-75
2022/07/15 05:50:15;;;;;;;8.07;4.03;;;;;;;;;;5026989;28;20032;-75
2022/07/15 05:52:41;;;;;;;7.90;3.85;;;;;;;;;;5026878;28;20083;-75
2022/07/15 05:55:07;;;;;;;6.65;4.18;;;;;;;;;;5027531;28;20076;-75
2022/07/15 05:57:33;;;;;;;5.13;4.18;;;;;;;;;;5027917;28;20029;-75
2022/07/15 05:59:59;;;;;;;6.53;4.25;;;;;;;;;;5027293;28;20104;-75
2022/07/15 06:02:25;;;;;;;7.47;4.13;;;;;;;;;;5028504;28;20407;-75
2022/07/15 06:04:51;;;;;;;7.78;4.35;;;;;;;;;;5028696;28;20025;-74
2022/07/15 06:07:18;;;;;;;7.53;4.03;;;;;;;;;;5028971;28;20119;-75
2022/07/15 06:09:44;;;;;;;7.63;4.18;;;;;;;;;;5025747;28;20022;-76
2022/07/15 06:12:10;;;;;;;9.23;4.57;;;;;;;;;;5026490;28;20021;-76
2022/07/15 06:14:36;;;;;;;6.70;3.95;;;;;;;;;;5025876;28;20021;-75
2022/07/15 06:17:02;;;;;;;7.85;3.85;;;;;;;;;;5025477;28;20383;-76
2022/07/15 06:19:28;;;;;;;4.43;3.53;;;;;;;;;;5024500;28;20037;-74
2022/07/15 06:21:54;;;;;;;6.85;3.88;;;;;;;;;;5023371;28;20113;-75
2022/07/15 06:24:20;;;;;;;9.10;4.95;;;;;;;;;;5022119;28;20040;-75
2022/07/15 06:26:46;;;;;;;4.45;3.95;;;;;;;;;;5024140;28;20026;-75
2022/07/15 06:29:12;;;;;;;7.15;3.95;;;;;;;;;;5019864;28;20042;-75
2022/07/15 06:31:39;;;;;;;7.50;3.53;;;;;;;;;;5024246;28;20029;-75
2022/07/15 06:34:05;;;;;;;3.83;3.25;;;;;;;;;;5022693;28;20506;-75
2022/07/15 06:36:32;;;;;;;3.75;3.35;;;;;;;;;;5020434;28;20034;-75
2022/07/15 06:38:58;;;;;;;6.53;3.85;;;;;;;;;;5025707;28;20061;-74
2022/07/15 06:41:25;;;;;;;4.15;3.25;;;;;;;;;;5020040;28;20453;-74
2022/07/15 06:43:51;;;;;;;3.83;3.45;;;;;;;;;;5017455;28;20025;-74
2022/07/15 06:46:17;;;;;;;8.65;3.92;;;;;;;;;;5025277;28;20025;-74
2022/07/15 06:48:43;;;;;;;7.95;3.28;;;;;;;;;;5020707;28;20083;-74
2022/07/15 06:51:09;;;;;;;5.28;3.45;;;;;;;;;;5023235;28;20029;-74
2022/07/15 06:53:36;;;;;;;4.40;3.35;;;;;;;;;;5021245;28;20021;-74
2022/07/15 06:56:02;;;;;;;5.40;3.45;;;;;;;;;;5022437;28;20109;-74
2022/07/15 06:58:28;;;;;;;4.35;3.90;;;;;;;;;;5020550;28;20096;-74
2022/07/15 07:00:54;;;;;;;3.40;2.90;;;;;;;;;;5023872;28;20117;-75
2022/07/15 07:03:20;;;;;;;7.43;3.30;;;;;;;;;;5019479;28;20018;-75
2022/07/15 07:05:46;;;;;;;5.53;3.47;;;;;;;;;;5021983;28;20490;-74
2022/07/15 07:08:13;;;;;;;4.03;2.92;;;;;;;;;;5022100;28;20056;-74
2022/07/15 07:10:39;;;;;;;5.03;2.90;;;;;;;;;;5025889;28;20482;-74
2022/07/15 07:13:05;;;;;;;5.95;2.70;;;;;;;;;;5026078;28;20407;-74
2022/07/15 07:15:31;;;;;;;4.88;2.70;;;;;;;;;;5028029;28;20503;-74
2022/07/15 07:17:57;;;;;;;4.07;2.63;;;;;;;;;;5027839;28;20040;-75
2022/07/15 07:20:23;;;;;;;2.90;2.53;;;;;;;;;;5026251;28;20542;-74
2022/07/15 07:22:49;;;;;;;4.45;2.65;;;;;;;;;;5029107;28;20025;-74
2022/07/15 07:25:15;;;;;;;4.35;2.55;;;;;;;;;;5025987;28;20036;-73
2022/07/15 07:27:41;;;;;;;3.50;2.17;;;;;;;;;;4986335;28;1228518;-74
2022/07/15 07:30:08;;;;;;;3.03;2.20;;;;;;;;;;5029815;28;20126;-73
2022/07/15 07:32:34;;;;;;;2.30;2.10;;;;;;;;;;5026250;28;20037;-73
2022/07/15 07:35:00;;;;;;;3.45;2.10;;;;;;;;;;5029507;28;20034;-73
2022/07/15 07:37:27;;;;;;;3.58;2.45;;;;;;;;;;5029630;28;20486;-74
2022/07/15 07:39:53;;;;;;;2.97;2.17;;;;;;;;;;5028375;28;20152;-74
2022/07/15 07:42:19;;;;;;;2.55;2.30;;;;;;;;;;5027439;28;20498;-74
2022/07/15 07:44:45;;;;;;;2.90;2.40;;;;;;;;;;5029855;28;20030;-74
2022/07/15 07:47:12;;;;;;;3.60;2.28;;;;;;;;;;5029248;28;20036;-74
2022/07/15 07:49:38;;;;;;;3.25;2.17;;;;;;;;;;5028217;28;20495;-74
2022/07/15 07:52:04;;;;;;;2.20;2.00;;;;;;;;;;5031322;28;20029;-75
2022/07/15 07:54:32;;;;;;;2.92;2.65;;;;;;;;;;5029621;28;20391;-75
2022/07/15 07:56:58;;;;;;;2.72;2.00;;;;;;;;;;5031366;28;20024;-76
2022/07/15 07:59:24;;;;;;;2.40;2.20;;;;;;;;;;5027663;28;20029;-75
2022/07/15 08:01:53;;;;;;;2.40;1.90;;;;;;;;;;5014975;28;20155;-75
2022/07/15 08:04:20;;;;;;;2.40;2.10;;;;;;;;;;5012789;28;20051;-76
2022/07/15 08:06:46;;;;;;;2.97;2.10;;;;;;;;;;5014977;28;20483;-76
2022/07/15 08:09:12;;;;;;;2.75;2.08;;;;;;;;;;5013022;28;20037;-75
2022/07/15 08:11:38;;;;;;;2.78;2.30;;;;;;;;;;5016818;28;20017;-73
2022/07/15 08:14:05;;;;;;;2.58;2.38;;;;;;;;;;5020137;28;20033;-73
2022/07/15 08:16:33;;;;;;;3.00;2.05;;;;;;;;;;5019607;28;20029;-75
2022/07/15 08:18:59;;;;;;;2.15;1.83;;;;;;;;;;5023394;28;20329;-74
2022/07/15 08:21:25;;;;;;;3.47;2.10;;;;;;;;;;5018006;28;20033;-75
2022/07/15 08:23:52;;;;;;;2.53;2.00;;;;;;;;;;5016062;28;20064;-73
2022/07/15 08:26:23;;;;;;;2.80;2.00;;;;;;;;;;5015439;28;20415;-75
2022/07/15 08:28:49;;;;;;;2.63;2.10;;;;;;;;;;5018204;28;20056;-74
2022/07/15 08:31:16;;;;;;;3.80;2.13;;;;;;;;;;5024006;28;20074;-74
2022/07/15 08:33:42;;;;;;;3.25;2.38;;;;;;;;;;5027306;28;20163;-74
2022/07/15 08:36:08;;;;;;;2.47;2.10;;;;;;;;;;5025828;28;20033;-75
2022/07/15 08:38:34;;;;;;;2.42;2.08;;;;;;;;;;5020202;28;20168;-75
2022/07/15 08:41:01;;;;;;;2.60;2.20;;;;;;;;;;5029552;28;20052;-75
2022/07/15 08:43:27;;;;;;;2.58;2.00;;;;;;;;;;5021371;28;20037;-74
2022/07/15 08:45:53;;;;;;;3.78;2.22;;;;;;;;;;5018091;28;20029;-74
2022/07/15 08:48:23;;;;;;;3.42;2.10;;;;;;;;;;5017676;28;20709;-76
2022/07/15 08:50:50;;;;;;;3.05;2.15;;;;;;;;;;5025789;28;20038;-76
2022/07/15 08:53:16;;;;;;;4.07;2.20;;;;;;;;;;5020331;28;20605;-77
2022/07/15 08:55:42;;;;;;;3.20;2.10;;;;;;;;;;5022463;28;20040;-76
2022/07/15 08:58:09;;;;;;;2.10;1.90;;;;;;;;;;5018833;28;20053;-76
2022/07/15 09:00:36;;;;;;;2.88;2.15;;;;;;;;;;5015412;28;20029;-76
2022/07/15 09:03:04;;;;;;;2.30;2.00;;;;;;;;;;5023987;28;20029;-76
2022/07/15 09:05:33;;;;;;;2.80;1.90;;;;;;;;;;5023962;28;20085;-76
2022/07/15 09:08:06;;;;;;;2.58;2.10;;;;;;;;;;5023905;28;20025;-75
2022/07/15 09:10:45;;;;;;;2.55;2.03;;;;;;;;;;5024295;28;20021;-76
2022/07/15 09:13:30;;;;;;;2.40;2.20;;;;;;;;;;5024939;28;20025;-77
2022/07/15 09:15:57;;;;;;;3.42;2.20;;;;;;;;;;5022893;28;20033;-75
2022/07/15 09:18:27;;;;;;;3.33;2.42;;;;;;;;;;5025203;28;20083;-75
2022/07/15 09:20:54;;;;;;;3.55;2.42;;;;;;;;;;5023901;28;20032;-76
2022/07/15 09:23:31;;;;;;;3.00;2.40;;;;;;;;;;5023965;28;20030;-75
2022/07/15 09:25:58;;;;;;;3.30;2.30;;;;;;;;;;5023513;28;20022;-77
2022/07/15 09:28:36;;;;;;;2.30;1.90;;;;;;;;;;5023078;28;20041;-77
2022/07/15 09:33:47;;;;;;;2.85;2.45;;;;;;;;;;5016863;28;20710;-77
2022/07/15 09:36:15;;;;;;;5.38;2.90;;;;;;;;;;5025972;28;20037;-75
2022/07/15 09:38:47;;;;;;;6.45;4.35;;;;;;;;;;5026026;28;20029;-77
2022/07/15 09:41:21;;;;;;;3.67;3.08;;;;;;;;;;5022539;28;20025;-77
2022/07/15 09:43:53;;;;;;;5.55;4.78;;;;;;;;;;5025747;28;20032;-77
2022/07/15 09:46:22;;;;;;;7.47;6.68;;;;;;;;;;5025764;28;20057;-77
2022/07/15 09:48:51;;;;;;;6.82;4.20;;;;;;;;;;5028777;28;20026;-78
2022/07/15 09:51:19;;;;;;;3.85;2.70;;;;;;;;;;5026059;28;20336;-76
2022/07/15 09:53:46;;;;;;;2.90;2.50;;;;;;;;;;5019615;28;20036;-76
2022/07/15 09:56:30;;;;;;;3.40;2.55;;;;;;;;;;5023402;28;20014;-77
2022/07/15 09:58:57;;;;;;;3.03;2.25;;;;;;;;;;5021792;28;20025;-77
2022/07/15 10:01:25;;;;;;;2.47;2.20;;;;;;;;;;5022198;28;20022;-76
2022/07/15 10:03:52;;;;;;;3.13;2.60;;;;;;;;;;5018333;28;20092;-78
2022/07/15 10:06:19;;;;;;;3.03;2.40;;;;;;;;;;5023742;28;20021;-75
2022/07/15 10:08:48;;;;;;;4.00;2.28;;;;;;;;;;5029378;28;20026;-75
2022/07/15 10:11:16;;;;;;;3.40;2.00;;;;;;;;;;5028580;28;20026;-75
2022/07/15 10:14:02;;;;;;;3.10;2.45;;;;;;;;;;5024355;28;20025;-76
2022/07/15 10:16:48;;;;;;;3.58;2.13;;;;;;;;;;5026111;28;20025;-75
2022/07/15 10:19:17;;;;;;;2.50;2.22;;;;;;;;;;5034520;28;20032;-76
2022/07/15 10:21:59;;;;;;;3.45;2.00;;;;;;;;;;5032973;28;20025;-75
2022/07/15 10:24:25;;;;;;;2.53;2.05;;;;;;;;;;5024316;28;20047;-77
2022/07/15 10:26:52;;;;;;;4.53;2.38;;;;;;;;;;5020299;28;20053;-75
2022/07/15 10:29:19;;;;;;;2.50;2.08;;;;;;;;;;5022026;28;20053;-75
2022/07/15 10:31:55;;;;;;;2.63;2.42;;;;;;;;;;5029206;28;20482;-76
2022/07/15 10:34:22;;;;;;;3.22;2.40;;;;;;;;;;5023413;28;20472;-75
2022/07/15 10:36:56;;;;;;;3.08;2.50;;;;;;;;;;5023897;28;20032;-76
2022/07/15 10:39:25;;;;;;;2.90;2.35;;;;;;;;;;5024356;28;20044;-76
2022/07/15 10:41:59;;;;;;;2.33;2.03;;;;;;;;;;5023212;28;20032;-75
2022/07/15 10:44:26;;;;;;;2.78;2.45;;;;;;;;;;5022158;28;20040;-77
2022/07/15 10:47:11;;;;;;;2.75;2.45;;;;;;;;;;5033971;28;20033;-75
2022/07/15 10:49:37;;;;;;;3.20;2.40;;;;;;;;;;5029745;28;20135;-76
2022/07/15 10:52:22;;;;;;;3.08;2.33;;;;;;;;;;5025018;28;20036;-75
2022/07/15 10:54:49;;;;;;;3.17;2.67;;;;;;;;;;5027397;28;20029;-77
2022/07/15 10:57:17;;;;;;;4.40;2.78;;;;;;;;;;5027471;28;20605;-74
2022/07/15 10:59:50;;;;;;;3.88;2.58;;;;;;;;;;5028641;28;20299;-77
2022/07/15 11:02:18;;;;;;;3.63;2.78;;;;;;;;;;5027876;28;20192;-76
2022/07/15 11:04:44;;;;;;;3.67;2.67;;;;;;;;;;5029825;28;20030;-76
2022/07/15 11:07:10;;;;;;;3.50;2.58;;;;;;;;;;5028359;28;20025;-75
2022/07/15 11:09:47;;;;;;;4.82;3.17;;;;;;;;;;5028382;28;20022;-75
2022/07/15 11:12:18;;;;;;;3.28;2.80;;;;;;;;;;5028837;28;20405;-76
2022/07/15 11:14:46;;;;;;;3.65;3.00;;;;;;;;;;5027529;28;20338;-78
2022/07/15 11:17:13;;;;;;;3.00;2.70;;;;;;;;;;5030303;28;20033;-77
2022/07/15 11:19:39;;;;;;;4.20;3.00;;;;;;;;;;5024497;28;20095;-76
2022/07/15 11:22:05;;;;;;;4.05;3.33;;;;;;;;;;5028260;28;20036;-75
2022/07/15 11:24:31;;;;;;;3.85;3.13;;;;;;;;;;5026158;28;20037;-76
2022/07/15 11:27:01;;;;;;;4.07;2.40;;;;;;;;;;5028533;28;20024;-76
2022/07/15 11:29:31;;;;;;;5.35;3.03;;;;;;;;;;5027798;28;20028;-74
2022/07/15 11:31:57;;;;;;;4.22;3.03;;;;;;;;;;5027129;28;20021;-76
2022/07/15 11:34:24;;;;;;;4.30;3.03;;;;;;;;;;5026319;28;20450;-77
2022/07/15 11:36:58;;;;;;;5.28;3.00;;;;;;;;;;5028719;28;20395;-75
2022/07/15 11:39:27;;;;;;;5.50;2.80;;;;;;;;;;5030667;28;20021;-76
2022/07/15 11:44:44;;;;;;;3.97;2.85;;;;;;;;;;5026559;28;20099;-75
2022/07/15 11:47:10;;;;;;;3.47;2.70;;;;;;;;;;5024955;28;20533;-75
2022/07/15 11:49:43;;;;;;;5.78;2.97;;;;;;;;;;5025339;28;20056;-75
2022/07/15 11:52:10;;;;;;;4.10;2.97;;;;;;;;;;5025368;28;20049;-75
2022/07/15 11:54:36;;;;;;;4.90;3.17;;;;;;;;;;5025985;28;20419;-75
2022/07/15 11:57:07;;;;;;;4.13;3.05;;;;;;;;;;5028176;28;20029;-74
2022/07/15 11:59:33;;;;;;;3.92;2.75;;;;;;;;;;5026635;28;20021;-73
2022/07/15 12:02:01;;;;;;;3.40;3.05;;;;;;;;;;5028192;28;20037;-76
2022/07/15 12:04:27;;;;;;;3.63;2.90;;;;;;;;;;5025886;28;20383;-74
2022/07/15 12:06:53;;;;;;;4.00;3.08;;;;;;;;;;5027056;28;20156;-75
2022/07/15 12:09:19;;;;;;;4.22;3.03;;;;;;;;;;5027233;28;20071;-75
2022/07/15 12:11:46;;;;;;;4.72;3.10;;;;;;;;;;5024054;28;20040;-76
2022/07/15 12:14:13;;;;;;;4.00;3.00;;;;;;;;;;5024591;28;20120;-76
2022/07/15 12:16:44;;;;;;;4.18;3.00;;;;;;;;;;5028084;28;20036;-76
2022/07/15 12:19:10;;;;;;;3.55;2.65;;;;;;;;;;5027915;28;20025;-76
2022/07/15 12:21:36;;;;;;;4.05;2.95;;;;;;;;;;5029302;28;20030;-75
2022/07/15 12:24:05;;;;;;;4.10;2.75;;;;;;;;;;5024739;28;20499;-74
2022/07/15 12:26:32;;;;;;;4.00;2.80;;;;;;;;;;5028899;28;20044;-74
2022/07/15 12:29:00;;;;;;;3.88;2.92;;;;;;;;;;5026341;28;20132;-73
2022/07/15 12:31:33;;;;;;;4.22;3.10;;;;;;;;;;5030685;28;20026;-74
2022/07/15 12:34:00;;;;;;;5.03;2.70;;;;;;;;;;5031504;28;20108;-75
2022/07/15 12:36:27;;;;;;;3.28;2.58;;;;;;;;;;5024590;28;20141;-75
2022/07/15 12:39:04;;;;;;;4.80;2.80;;;;;;;;;;5030507;28;20018;-75
2022/07/15 12:41:31;;;;;;;2.97;2.67;;;;;;;;;;5027689;28;20036;-75
2022/07/15 12:44:00;;;;;;;4.10;2.80;;;;;;;;;;5038816;28;20048;-76
2022/07/15 12:46:44;;;;;;;3.88;2.95;;;;;;;;;;5031467;28;20547;-75
2022/07/15 12:49:10;;;;;;;3.22;2.50;;;;;;;;;;5028173;28;20033;-74
2022/07/15 12:51:37;;;;;;;3.40;2.67;;;;;;;;;;5019805;28;20096;-74
2022/07/15 12:54:07;;;;;;;3.30;2.90;;;;;;;;;;5025737;28;20030;-75
2022/07/15 12:56:53;;;;;;;4.10;2.95;;;;;;;;;;5020451;28;20479;-76
2022/07/15 12:59:19;;;;;;;3.40;2.70;;;;;;;;;;5027439;28;20021;-76
2022/07/15 13:02:01;;;;;;;4.03;2.80;;;;;;;;;;5023393;28;20045;-75
2022/07/15 13:04:28;;;;;;;3.17;2.70;;;;;;;;;;5028686;28;20026;-76
2022/07/15 13:06:54;;;;;;;3.63;3.20;;;;;;;;;;5021510;28;20052;-74
2022/07/15 13:09:20;;;;;;;4.22;2.60;;;;;;;;;;5021905;28;20410;-75
2022/07/15 13:11:47;;;;;;;3.78;2.80;;;;;;;;;;5023567;28;20022;-75
2022/07/15 13:14:14;;;;;;;5.30;3.08;;;;;;;;;;5026050;28;20025;-74
2022/07/15 13:16:40;;;;;;;2.97;2.58;;;;;;;;;;5022259;28;20040;-75
2022/07/15 13:19:07;;;;;;;3.22;2.80;;;;;;;;;;5018940;28;20045;-75
2022/07/15 13:21:33;;;;;;;3.67;2.78;;;;;;;;;;5025921;28;20458;-75
2022/07/15 13:23:59;;;;;;;3.97;2.50;;;;;;;;;;5023911;28;20588;-75
2022/07/15 13:26:25;;;;;;;2.50;2.30;;;;;;;;;;5018671;28;20033;-74
2022/07/15 13:28:51;;;;;;;3.17;2.55;;;;;;;;;;5024636;28;20065;-75
2022/07/15 13:31:17;;;;;;;3.20;2.65;;;;;;;;;;5028801;28;20490;-75
2022/07/15 13:33:43;;;;;;;3.17;2.45;;;;;;;;;;5026675;28;20021;-74
2022/07/15 13:36:09;;;;;;;4.57;2.50;;;;;;;;;;5022628;28;20052;-74
2022/07/15 13:38:35;;;;;;;3.70;2.95;;;;;;;;;;5027325;28;20027;-75
2022/07/15 13:41:01;;;;;;;5.40;2.80;;;;;;;;;;5023632;28;20044;-76
2022/07/15 13:43:27;;;;;;;3.95;2.70;;;;;;;;;;5021928;28;20036;-75
2022/07/15 13:45:55;;;;;;;3.00;2.35;;;;;;;;;;5024650;28;20083;-75
2022/07/15 13:48:21;;;;;;;3.72;2.90;;;;;;;;;;5021276;28;20029;-77
2022/07/15 13:53:34;;;;;;;3.72;3.03;;;;;;;;;;5026202;28;20502;-75
2022/07/15 13:56:00;;;;;;;3.75;2.47;;;;;;;;;;5022523;28;20037;-75
2022/07/15 13:58:27;;;;;;;4.22;3.05;;;;;;;;;;5024755;28;20061;-74
2022/07/15 14:00:53;;;;;;;4.60;2.78;;;;;;;;;;5015131;28;20029;-76
2022/07/15 14:03:19;;;;;;;3.45;2.85;;;;;;;;;;5022253;28;20103;-75
2022/07/15 14:05:46;;;;;;;4.15;2.80;;;;;;;;;;5024177;28;20080;-76
2022/07/15 14:08:12;;;;;;;5.28;3.20;;;;;;;;;;5023715;28;20037;-75
2022/07/15 14:10:38;;;;;;;5.05;3.22;;;;;;;;;;5023000;28;20045;-75
2022/07/15 14:13:04;;;;;;;5.85;3.00;;;;;;;;;;5024501;28;20035;-74
2022/07/15 14:15:30;;;;;;;3.80;2.78;;;;;;;;;;5023272;28;20026;-74
2022/07/15 14:17:56;;;;;;;5.63;2.72;;;;;;;;;;5026430;28;20132;-74
2022/07/15 14:20:22;;;;;;;3.55;2.95;;;;;;;;;;5022617;28;20032;-77
2022/07/15 14:22:49;;;;;;;4.43;3.03;;;;;;;;;;5023278;28;20025;-75
2022/07/15 14:25:15;;;;;;;4.20;3.10;;;;;;;;;;5022999;28;20373;-76
2022/07/15 14:27:41;;;;;;;3.80;2.97;;;;;;;;;;5023573;28;20045;-78
2022/07/15 14:30:08;;;;;;;3.50;3.00;;;;;;;;;;5019884;28;20029;-75
2022/07/15 14:32:34;;;;;;;4.68;3.45;;;;;;;;;;5022339;28;20571;-78
2022/07/15 14:35:00;;;;;;;5.43;3.08;;;;;;;;;;5022566;28;20391;-76
2022/07/15 14:37:27;;;;;;;5.30;3.30;;;;;;;;;;5023072;28;20087;-76
2022/07/15 14:39:53;;;;;;;3.35;2.85;;;;;;;;;;5023751;28;20017;-76
2022/07/15 14:42:19;;;;;;;7.65;3.65;;;;;;;;;;5023110;28;20526;-75
2022/07/15 14:44:45;;;;;;;5.28;3.20;;;;;;;;;;5021856;28;20017;-76
2022/07/15 14:47:12;;;;;;;3.35;2.90;;;;;;;;;;5020948;28;20025;-77
2022/07/15 14:49:38;;;;;;;3.42;2.83;;;;;;;;;;5022496;28;20028;-75
2022/07/15 14:52:04;;;;;;;4.93;3.00;;;;;;;;;;5023165;28;20021;-74
2022/07/15 14:54:31;;;;;;;5.78;3.00;;;;;;;;;;5023328;28;20391;-75
2022/07/15 14:57:00;;;;;;;4.95;3.38;;;;;;;;;;5023595;28;20140;-75